sensor_id;sensor_type;location;lat;lon;timestamp;temperature;humidity
13211;DHT22;6670;51.53087800;7.23266500;2022-09-25T00:02:17;14.60;99.90
13211;DHT22;6670;51.53087800;7.23266500;2022-09-25T00:04:45;14.70;99.90
13211;DHT22;6670;51.53087800;7.23266500;2022-09-25T00:07:12;14.70;99.90
13211;DHT22;6670;51.53087800;7.23266500;2022-09-25T00:09:40;14.70;99.90
13211;DHT22;6670;51.53087800;7.23266500;2022-09-25T00:12:07;14.80;99.90
13211;DHT22;6670;51.53087800;7.23266500;2022-09-25T00:14:36;14.70;99.90
13211;DHT22;6670;51.53087800;7.23266500;2022-09-25T00:17:04;14.70;99.90
13211;DHT22;6670;51.53087800;7.23266500;2022-09-25T00:19:31;14.70;99.90
13211;DHT22;6670;51.53087800;7.23266500;2022-09-25T00:22:15;14.70;99.90
13211;DHT22;6670;51.53087800;7.23266500;2022-09-25T00:24:43;14.70;99.90
13211;DHT22;6670;51.53087800;7.23266500;2022-09-25T00:27:13;14.70;99.90
13211;DHT22;6670;51.53087800;7.23266500;2022-09-25T00:29:42;14.80;99.90
13211;DHT22;6670;51.53087800;7.23266500;2022-09-25T00:32:10;14.80;99.90
13211;DHT22;6670;51.53087800;7.23266500;2022-09-25T00:34:38;14.80;99.90
13211;DHT22;6670;51.53087800;7.23266500;2022-09-25T00:37:06;14.80;99.90
13211;DHT22;6670;51.53087800;7.23266500;2022-09-25T00:39:33;14.80;99.90
13211;DHT22;6670;51.53087800;7.23266500;2022-09-25T00:42:01;14.80;99.90
13211;DHT22;6670;51.53087800;7.23266500;2022-09-25T00:44:54;14.90;99.90
13211;DHT22;6670;51.53087800;7.23266500;2022-09-25T00:47:39;14.80;99.90
13211;DHT22;6670;51.53087800;7.23266500;2022-09-25T00:50:24;14.80;99.90
13211;DHT22;6670;51.53087800;7.23266500;2022-09-25T00:52:55;14.70;99.90
13211;DHT22;6670;51.53087800;7.23266500;2022-09-25T00:55:23;14.70;99.90
13211;DHT22;6670;51.53087800;7.23266500;2022-09-25T00:57:53;14.70;99.90
13211;DHT22;6670;51.53087800;7.23266500;2022-09-25T01:00:24;14.60;99.90
13211;DHT22;6670;51.53087800;7.23266500;2022-09-25T01:02:52;14.50;99.90
13211;DHT22;6670;51.53087800;7.23266500;2022-09-25T01:05:23;14.50;99.90
13211;DHT22;6670;51.53087800;7.23266500;2022-09-25T01:07:52;14.50;99.90
13211;DHT22;6670;51.53087800;7.23266500;2022-09-25T01:10:22;14.40;99.90
13211;DHT22;6670;51.53087800;7.23266500;2022-09-25T01:12:50;14.50;99.90
13211;DHT22;6670;51.53087800;7.23266500;2022-09-25T01:15:19;14.60;99.90
13211;DHT22;6670;51.53087800;7.23266500;2022-09-25T01:17:57;14.60;99.90
13211;DHT22;6670;51.53087800;7.23266500;2022-09-25T01:20:39;14.40;99.90
13211;DHT22;6670;51.53087800;7.23266500;2022-09-25T01:23:16;14.30;99.90
13211;DHT22;6670;51.53087800;7.23266500;2022-09-25T01:26:00;14.30;99.90
13211;DHT22;6670;51.53087800;7.23266500;2022-09-25T01:28:58;14.40;99.90
13211;DHT22;6670;51.53087800;7.23266500;2022-09-25T01:31:31;14.50;99.90
13211;DHT22;6670;51.53087800;7.23266500;2022-09-25T01:34:10;14.50;99.90
13211;DHT22;6670;51.53087800;7.23266500;2022-09-25T01:36:46;14.50;99.90
13211;DHT22;6670;51.53087800;7.23266500;2022-09-25T01:39:19;14.50;99.90
13211;DHT22;6670;51.53087800;7.23266500;2022-09-25T01:41:51;14.40;99.90
13211;DHT22;6670;51.53087800;7.23266500;2022-09-25T01:44:33;14.30;99.90
13211;DHT22;6670;51.53087800;7.23266500;2022-09-25T01:47:06;14.40;99.90
13211;DHT22;6670;51.53087800;7.23266500;2022-09-25T01:49:38;14.40;99.90
13211;DHT22;6670;51.53087800;7.23266500;2022-09-25T01:52:09;14.30;99.90
13211;DHT22;6670;51.53087800;7.23266500;2022-09-25T01:54:41;14.40;99.90
13211;DHT22;6670;51.53087800;7.23266500;2022-09-25T01:57:15;14.40;99.90
13211;DHT22;6670;51.53087800;7.23266500;2022-09-25T01:59:50;14.40;99.90
13211;DHT22;6670;51.53087800;7.23266500;2022-09-25T02:02:24;14.40;99.90
13211;DHT22;6670;51.53087800;7.23266500;2022-09-25T02:04:55;14.30;99.90
13211;DHT22;6670;51.53087800;7.23266500;2022-09-25T02:07:28;14.30;99.90
13211;DHT22;6670;51.53087800;7.23266500;2022-09-25T02:10:04;14.30;99.90
13211;DHT22;6670;51.53087800;7.23266500;2022-09-25T02:12:37;14.40;99.90
13211;DHT22;6670;51.53087800;7.23266500;2022-09-25T02:15:11;14.40;99.90
13211;DHT22;6670;51.53087800;7.23266500;2022-09-25T02:17:43;14.30;99.90
13211;DHT22;6670;51.53087800;7.23266500;2022-09-25T02:20:32;14.40;99.90
13211;DHT22;6670;51.53087800;7.23266500;2022-09-25T02:23:07;14.40;99.90
13211;DHT22;6670;51.53087800;7.23266500;2022-09-25T02:25:41;14.50;99.90
13211;DHT22;6670;51.53087800;7.23266500;2022-09-25T02:28:10;14.40;99.90
13211;DHT22;6670;51.53087800;7.23266500;2022-09-25T02:30:39;14.50;99.90
13211;DHT22;6670;51.53087800;7.23266500;2022-09-25T02:33:06;14.40;99.90
13211;DHT22;6670;51.53087800;7.23266500;2022-09-25T02:35:35;14.50;99.90
13211;DHT22;6670;51.53087800;7.23266500;2022-09-25T02:38:03;14.40;99.90
13211;DHT22;6670;51.53087800;7.23266500;2022-09-25T02:40:36;14.40;99.90
13211;DHT22;6670;51.53087800;7.23266500;2022-09-25T02:43:13;14.40;99.90
13211;DHT22;6670;51.53087800;7.23266500;2022-09-25T02:45:54;14.40;99.90
13211;DHT22;6670;51.53087800;7.23266500;2022-09-25T02:48:30;14.40;99.90
13211;DHT22;6670;51.53087800;7.23266500;2022-09-25T02:51:03;14.50;99.90
13211;DHT22;6670;51.53087800;7.23266500;2022-09-25T02:53:37;14.50;99.90
13211;DHT22;6670;51.53087800;7.23266500;2022-09-25T02:56:10;14.40;99.90
13211;DHT22;6670;51.53087800;7.23266500;2022-09-25T02:58:41;14.40;99.90
13211;DHT22;6670;51.53087800;7.23266500;2022-09-25T03:01:13;14.30;99.90
13211;DHT22;6670;51.53087800;7.23266500;2022-09-25T03:03:43;14.20;99.90
13211;DHT22;6670;51.53087800;7.23266500;2022-09-25T03:06:11;14.20;99.90
13211;DHT22;6670;51.53087800;7.23266500;2022-09-25T03:08:41;14.10;99.90
13211;DHT22;6670;51.53087800;7.23266500;2022-09-25T03:11:13;14.10;99.90
13211;DHT22;6670;51.53087800;7.23266500;2022-09-25T03:13:42;14.00;99.90
13211;DHT22;6670;51.53087800;7.23266500;2022-09-25T03:16:13;14.00;99.90
13211;DHT22;6670;51.53087800;7.23266500;2022-09-25T03:18:42;14.10;99.90
13211;DHT22;6670;51.53087800;7.23266500;2022-09-25T03:21:10;14.10;99.90
13211;DHT22;6670;51.53087800;7.23266500;2022-09-25T03:23:37;14.10;99.90
13211;DHT22;6670;51.53087800;7.23266500;2022-09-25T03:26:05;14.10;99.90
13211;DHT22;6670;51.53087800;7.23266500;2022-09-25T03:28:33;14.00;99.90
13211;DHT22;6670;51.53087800;7.23266500;2022-09-25T03:31:02;14.00;99.90
13211;DHT22;6670;51.53087800;7.23266500;2022-09-25T03:33:33;14.00;99.90
13211;DHT22;6670;51.53087800;7.23266500;2022-09-25T03:36:06;14.00;99.90
13211;DHT22;6670;51.53087800;7.23266500;2022-09-25T03:38:40;14.00;99.90
13211;DHT22;6670;51.53087800;7.23266500;2022-09-25T03:41:09;13.90;99.90
13211;DHT22;6670;51.53087800;7.23266500;2022-09-25T03:43:37;14.00;99.90
13211;DHT22;6670;51.53087800;7.23266500;2022-09-25T03:46:06;14.00;99.90
13211;DHT22;6670;51.53087800;7.23266500;2022-09-25T03:48:35;13.90;99.90
13211;DHT22;6670;51.53087800;7.23266500;2022-09-25T03:51:04;14.00;99.90
13211;DHT22;6670;51.53087800;7.23266500;2022-09-25T03:53:32;14.00;99.90
13211;DHT22;6670;51.53087800;7.23266500;2022-09-25T03:56:01;14.00;99.90
13211;DHT22;6670;51.53087800;7.23266500;2022-09-25T03:58:29;14.00;99.90
13211;DHT22;6670;51.53087800;7.23266500;2022-09-25T04:00:59;13.90;99.90
13211;DHT22;6670;51.53087800;7.23266500;2022-09-25T04:03:27;13.90;99.90
13211;DHT22;6670;51.53087800;7.23266500;2022-09-25T04:05:57;13.90;99.90
13211;DHT22;6670;51.53087800;7.23266500;2022-09-25T04:08:26;13.90;99.90
13211;DHT22;6670;51.53087800;7.23266500;2022-09-25T04:10:54;14.00;99.90
13211;DHT22;6670;51.53087800;7.23266500;2022-09-25T04:13:26;14.00;99.90
13211;DHT22;6670;51.53087800;7.23266500;2022-09-25T04:15:55;14.00;99.90
13211;DHT22;6670;51.53087800;7.23266500;2022-09-25T04:18:23;14.00;99.90
13211;DHT22;6670;51.53087800;7.23266500;2022-09-25T04:20:51;13.90;99.90
13211;DHT22;6670;51.53087800;7.23266500;2022-09-25T04:23:19;13.90;99.90
13211;DHT22;6670;51.53087800;7.23266500;2022-09-25T04:25:47;14.00;99.90
13211;DHT22;6670;51.53087800;7.23266500;2022-09-25T04:28:14;14.00;99.90
13211;DHT22;6670;51.53087800;7.23266500;2022-09-25T04:30:42;13.90;99.90
13211;DHT22;6670;51.53087800;7.23266500;2022-09-25T04:33:09;13.90;99.90
13211;DHT22;6670;51.53087800;7.23266500;2022-09-25T04:35:54;13.90;99.90
13211;DHT22;6670;51.53087800;7.23266500;2022-09-25T04:38:23;13.80;99.90
13211;DHT22;6670;51.53087800;7.23266500;2022-09-25T04:40:50;13.80;99.90
13211;DHT22;6670;51.53087800;7.23266500;2022-09-25T04:43:18;13.80;99.90
13211;DHT22;6670;51.53087800;7.23266500;2022-09-25T04:45:45;13.80;99.90
13211;DHT22;6670;51.53087800;7.23266500;2022-09-25T04:48:13;13.70;99.90
13211;DHT22;6670;51.53087800;7.23266500;2022-09-25T04:50:46;13.70;99.90
13211;DHT22;6670;51.53087800;7.23266500;2022-09-25T04:53:13;13.60;99.90
13211;DHT22;6670;51.53087800;7.23266500;2022-09-25T04:55:43;13.60;99.90
13211;DHT22;6670;51.53087800;7.23266500;2022-09-25T04:58:11;13.40;99.90
13211;DHT22;6670;51.53087800;7.23266500;2022-09-25T05:00:38;13.40;99.90
13211;DHT22;6670;51.53087800;7.23266500;2022-09-25T05:03:07;13.40;99.90
13211;DHT22;6670;51.53087800;7.23266500;2022-09-25T05:05:34;13.30;99.90
13211;DHT22;6670;51.53087800;7.23266500;2022-09-25T05:08:03;13.20;99.90
13211;DHT22;6670;51.53087800;7.23266500;2022-09-25T05:10:32;13.10;99.90
13211;DHT22;6670;51.53087800;7.23266500;2022-09-25T05:13:02;13.20;99.90
13211;DHT22;6670;51.53087800;7.23266500;2022-09-25T05:15:31;13.10;99.90
13211;DHT22;6670;51.53087800;7.23266500;2022-09-25T05:17:59;13.20;99.90
13211;DHT22;6670;51.53087800;7.23266500;2022-09-25T05:20:27;13.30;99.90
13211;DHT22;6670;51.53087800;7.23266500;2022-09-25T05:22:55;13.40;99.90
13211;DHT22;6670;51.53087800;7.23266500;2022-09-25T05:25:22;13.50;99.90
13211;DHT22;6670;51.53087800;7.23266500;2022-09-25T05:27:51;13.60;99.90
13211;DHT22;6670;51.53087800;7.23266500;2022-09-25T05:30:22;13.50;99.90
13211;DHT22;6670;51.53087800;7.23266500;2022-09-25T05:32:50;13.50;99.90
13211;DHT22;6670;51.53087800;7.23266500;2022-09-25T05:35:19;13.50;99.90
13211;DHT22;6670;51.53087800;7.23266500;2022-09-25T05:37:47;13.50;99.90
13211;DHT22;6670;51.53087800;7.23266500;2022-09-25T05:40:15;13.60;99.90
13211;DHT22;6670;51.53087800;7.23266500;2022-09-25T05:42:44;13.60;99.90
13211;DHT22;6670;51.53087800;7.23266500;2022-09-25T05:45:12;13.50;99.90
13211;DHT22;6670;51.53087800;7.23266500;2022-09-25T05:47:44;13.50;99.90
13211;DHT22;6670;51.53087800;7.23266500;2022-09-25T05:50:59;13.30;99.90
13211;DHT22;6670;51.53087800;7.23266500;2022-09-25T05:53:22;13.30;99.90
13211;DHT22;6670;51.53087800;7.23266500;2022-09-25T05:55:50;13.30;99.90
13211;DHT22;6670;51.53087800;7.23266500;2022-09-25T05:58:18;13.30;99.90
13211;DHT22;6670;51.53087800;7.23266500;2022-09-25T06:00:46;13.40;99.90
13211;DHT22;6670;51.53087800;7.23266500;2022-09-25T06:03:15;13.20;99.90
13211;DHT22;6670;51.53087800;7.23266500;2022-09-25T06:05:44;13.20;99.90
13211;DHT22;6670;51.53087800;7.23266500;2022-09-25T06:08:12;13.10;99.90
13211;DHT22;6670;51.53087800;7.23266500;2022-09-25T06:10:40;13.10;99.90
13211;DHT22;6670;51.53087800;7.23266500;2022-09-25T06:13:07;13.00;99.90
13211;DHT22;6670;51.53087800;7.23266500;2022-09-25T06:15:36;12.80;99.90
13211;DHT22;6670;51.53087800;7.23266500;2022-09-25T06:18:10;12.80;99.90
13211;DHT22;6670;51.53087800;7.23266500;2022-09-25T06:20:38;12.80;99.90
13211;DHT22;6670;51.53087800;7.23266500;2022-09-25T06:23:06;12.80;99.90
13211;DHT22;6670;51.53087800;7.23266500;2022-09-25T06:25:33;12.70;99.90
13211;DHT22;6670;51.53087800;7.23266500;2022-09-25T06:28:02;12.60;99.90
13211;DHT22;6670;51.53087800;7.23266500;2022-09-25T06:30:31;12.70;99.90
13211;DHT22;6670;51.53087800;7.23266500;2022-09-25T06:33:05;12.80;99.90
13211;DHT22;6670;51.53087800;7.23266500;2022-09-25T06:35:42;12.70;99.90
13211;DHT22;6670;51.53087800;7.23266500;2022-09-25T06:38:10;12.90;99.90
13211;DHT22;6670;51.53087800;7.23266500;2022-09-25T06:40:38;13.10;99.90
13211;DHT22;6670;51.53087800;7.23266500;2022-09-25T06:43:08;13.40;99.90
13211;DHT22;6670;51.53087800;7.23266500;2022-09-25T06:45:36;13.40;99.90
13211;DHT22;6670;51.53087800;7.23266500;2022-09-25T06:48:05;13.40;99.90
13211;DHT22;6670;51.53087800;7.23266500;2022-09-25T06:50:38;13.50;99.90
13211;DHT22;6670;51.53087800;7.23266500;2022-09-25T06:53:08;13.70;99.90
13211;DHT22;6670;51.53087800;7.23266500;2022-09-25T06:55:36;13.50;99.90
13211;DHT22;6670;51.53087800;7.23266500;2022-09-25T06:58:05;13.60;99.90
13211;DHT22;6670;51.53087800;7.23266500;2022-09-25T07:00:34;13.60;99.90
13211;DHT22;6670;51.53087800;7.23266500;2022-09-25T07:03:09;13.70;99.90
13211;DHT22;6670;51.53087800;7.23266500;2022-09-25T07:06:08;13.80;99.90
13211;DHT22;6670;51.53087800;7.23266500;2022-09-25T07:13:24;13.90;99.90
13211;DHT22;6670;51.53087800;7.23266500;2022-09-25T07:18:10;13.90;99.90
13211;DHT22;6670;51.53087800;7.23266500;2022-09-25T07:19:50;13.90;99.90
13211;DHT22;6670;51.53087800;7.23266500;2022-09-25T07:22:17;13.90;99.90
13211;DHT22;6670;51.53087800;7.23266500;2022-09-25T07:24:45;13.90;99.90
13211;DHT22;6670;51.53087800;7.23266500;2022-09-25T07:27:16;13.90;99.90
13211;DHT22;6670;51.53087800;7.23266500;2022-09-25T07:30:03;14.00;99.90
13211;DHT22;6670;51.53087800;7.23266500;2022-09-25T07:32:31;14.10;99.90
13211;DHT22;6670;51.53087800;7.23266500;2022-09-25T07:34:58;14.60;99.90
13211;DHT22;6670;51.53087800;7.23266500;2022-09-25T07:37:27;15.10;99.90
13211;DHT22;6670;51.53087800;7.23266500;2022-09-25T07:39:59;15.10;99.90
13211;DHT22;6670;51.53087800;7.23266500;2022-09-25T07:42:26;14.80;99.90
13211;DHT22;6670;51.53087800;7.23266500;2022-09-25T07:44:56;14.50;99.90
13211;DHT22;6670;51.53087800;7.23266500;2022-09-25T07:47:23;14.40;99.90
13211;DHT22;6670;51.53087800;7.23266500;2022-09-25T07:49:51;14.40;99.90
13211;DHT22;6670;51.53087800;7.23266500;2022-09-25T07:52:18;14.20;99.90
13211;DHT22;6670;51.53087800;7.23266500;2022-09-25T07:54:46;14.30;99.90
13211;DHT22;6670;51.53087800;7.23266500;2022-09-25T07:57:15;14.30;99.90
13211;DHT22;6670;51.53087800;7.23266500;2022-09-25T07:59:45;14.30;99.90
13211;DHT22;6670;51.53087800;7.23266500;2022-09-25T08:02:14;14.10;99.90
13211;DHT22;6670;51.53087800;7.23266500;2022-09-25T08:04:42;14.20;99.90
13211;DHT22;6670;51.53087800;7.23266500;2022-09-25T08:07:09;14.20;99.90
13211;DHT22;6670;51.53087800;7.23266500;2022-09-25T08:09:37;14.20;99.90
13211;DHT22;6670;51.53087800;7.23266500;2022-09-25T08:12:05;14.20;99.90
13211;DHT22;6670;51.53087800;7.23266500;2022-09-25T08:14:36;14.40;99.90
13211;DHT22;6670;51.53087800;7.23266500;2022-09-25T08:17:03;14.50;99.90
13211;DHT22;6670;51.53087800;7.23266500;2022-09-25T08:19:32;14.40;99.90
13211;DHT22;6670;51.53087800;7.23266500;2022-09-25T08:22:00;14.50;99.90
13211;DHT22;6670;51.53087800;7.23266500;2022-09-25T08:24:27;14.50;99.90
13211;DHT22;6670;51.53087800;7.23266500;2022-09-25T08:26:55;14.70;99.90
13211;DHT22;6670;51.53087800;7.23266500;2022-09-25T08:29:23;14.70;99.90
13211;DHT22;6670;51.53087800;7.23266500;2022-09-25T08:32:00;14.60;99.90
13211;DHT22;6670;51.53087800;7.23266500;2022-09-25T08:35:00;14.60;99.90
13211;DHT22;6670;51.53087800;7.23266500;2022-09-25T08:37:55;14.60;99.90
13211;DHT22;6670;51.53087800;7.23266500;2022-09-25T08:41:13;14.60;99.90
13211;DHT22;6670;51.53087800;7.23266500;2022-09-25T08:43:42;14.70;99.90
13211;DHT22;6670;51.53087800;7.23266500;2022-09-25T08:46:18;14.80;99.90
13211;DHT22;6670;51.53087800;7.23266500;2022-09-25T08:49:06;14.80;99.90
13211;DHT22;6670;51.53087800;7.23266500;2022-09-25T08:51:38;14.80;99.90
13211;DHT22;6670;51.53087800;7.23266500;2022-09-25T08:54:11;14.80;99.90
13211;DHT22;6670;51.53087800;7.23266500;2022-09-25T08:56:42;14.70;99.90
13211;DHT22;6670;51.53087800;7.23266500;2022-09-25T08:59:21;14.70;99.90
13211;DHT22;6670;51.53087800;7.23266500;2022-09-25T09:01:55;14.80;99.90
13211;DHT22;6670;51.53087800;7.23266500;2022-09-25T09:04:27;14.80;99.90
13211;DHT22;6670;51.53087800;7.23266500;2022-09-25T09:07:04;14.80;99.90
13211;DHT22;6670;51.53087800;7.23266500;2022-09-25T09:09:37;14.70;99.90
13211;DHT22;6670;51.53087800;7.23266500;2022-09-25T09:12:09;14.80;99.90
13211;DHT22;6670;51.53087800;7.23266500;2022-09-25T09:14:43;14.80;99.90
13211;DHT22;6670;51.53087800;7.23266500;2022-09-25T09:17:15;15.00;99.90
13211;DHT22;6670;51.53087800;7.23266500;2022-09-25T09:19:50;15.10;99.90
13211;DHT22;6670;51.53087800;7.23266500;2022-09-25T09:22:25;15.20;99.90
13211;DHT22;6670;51.53087800;7.23266500;2022-09-25T09:25:01;15.20;99.90
13211;DHT22;6670;51.53087800;7.23266500;2022-09-25T09:27:46;15.20;99.90
13211;DHT22;6670;51.53087800;7.23266500;2022-09-25T09:30:19;15.20;99.90
13211;DHT22;6670;51.53087800;7.23266500;2022-09-25T09:33:10;15.40;99.90
13211;DHT22;6670;51.53087800;7.23266500;2022-09-25T09:35:46;15.60;99.90
13211;DHT22;6670;51.53087800;7.23266500;2022-09-25T09:38:26;16.00;99.90
13211;DHT22;6670;51.53087800;7.23266500;2022-09-25T09:41:10;16.10;99.90
13211;DHT22;6670;51.53087800;7.23266500;2022-09-25T09:46:43;16.10;99.90
13211;DHT22;6670;51.53087800;7.23266500;2022-09-25T09:49:16;16.00;99.30
13211;DHT22;6670;51.53087800;7.23266500;2022-09-25T09:51:49;15.90;99.20
13211;DHT22;6670;51.53087800;7.23266500;2022-09-25T09:54:26;16.10;99.50
13211;DHT22;6670;51.53087800;7.23266500;2022-09-25T09:57:04;16.10;99.30
13211;DHT22;6670;51.53087800;7.23266500;2022-09-25T09:59:43;16.30;98.10
13211;DHT22;6670;51.53087800;7.23266500;2022-09-25T10:02:29;16.40;97.00
13211;DHT22;6670;51.53087800;7.23266500;2022-09-25T10:05:02;16.60;96.50
13211;DHT22;6670;51.53087800;7.23266500;2022-09-25T10:07:33;16.60;96.10
13211;DHT22;6670;51.53087800;7.23266500;2022-09-25T10:10:10;16.70;95.20
13211;DHT22;6670;51.53087800;7.23266500;2022-09-25T10:12:41;17.00;95.70
13211;DHT22;6670;51.53087800;7.23266500;2022-09-25T10:15:16;16.50;96.00
13211;DHT22;6670;51.53087800;7.23266500;2022-09-25T10:17:46;16.60;95.90
13211;DHT22;6670;51.53087800;7.23266500;2022-09-25T10:20:18;16.70;95.10
13211;DHT22;6670;51.53087800;7.23266500;2022-09-25T10:22:46;16.80;95.40
13211;DHT22;6670;51.53087800;7.23266500;2022-09-25T10:25:34;16.90;95.40
13211;DHT22;6670;51.53087800;7.23266500;2022-09-25T10:28:21;16.70;95.20
13211;DHT22;6670;51.53087800;7.23266500;2022-09-25T10:30:50;16.50;95.60
13211;DHT22;6670;51.53087800;7.23266500;2022-09-25T10:33:19;16.50;95.20
13211;DHT22;6670;51.53087800;7.23266500;2022-09-25T10:35:48;16.70;94.30
13211;DHT22;6670;51.53087800;7.23266500;2022-09-25T10:38:29;17.00;94.30
13211;DHT22;6670;51.53087800;7.23266500;2022-09-25T10:41:01;17.20;93.30
13211;DHT22;6670;51.53087800;7.23266500;2022-09-25T10:43:30;17.10;92.00
13211;DHT22;6670;51.53087800;7.23266500;2022-09-25T10:46:08;17.20;92.90
13211;DHT22;6670;51.53087800;7.23266500;2022-09-25T10:48:38;17.50;92.50
13211;DHT22;6670;51.53087800;7.23266500;2022-09-25T10:51:23;17.50;92.10
13211;DHT22;6670;51.53087800;7.23266500;2022-09-25T10:53:52;17.50;92.30
13211;DHT22;6670;51.53087800;7.23266500;2022-09-25T10:56:29;17.20;93.80
13211;DHT22;6670;51.53087800;7.23266500;2022-09-25T10:58:59;16.60;94.20
13211;DHT22;6670;51.53087800;7.23266500;2022-09-25T11:01:31;16.70;94.00
13211;DHT22;6670;51.53087800;7.23266500;2022-09-25T11:04:03;16.90;93.30
13211;DHT22;6670;51.53087800;7.23266500;2022-09-25T11:06:33;17.20;92.50
13211;DHT22;6670;51.53087800;7.23266500;2022-09-25T11:09:11;17.10;91.60
13211;DHT22;6670;51.53087800;7.23266500;2022-09-25T11:11:41;17.00;92.60
13211;DHT22;6670;51.53087800;7.23266500;2022-09-25T11:14:19;17.10;93.50
13211;DHT22;6670;51.53087800;7.23266500;2022-09-25T11:16:52;17.30;93.50
13211;DHT22;6670;51.53087800;7.23266500;2022-09-25T11:19:25;17.00;93.30
13211;DHT22;6670;51.53087800;7.23266500;2022-09-25T11:22:05;16.90;93.00
13211;DHT22;6670;51.53087800;7.23266500;2022-09-25T11:24:50;16.60;93.00
13211;DHT22;6670;51.53087800;7.23266500;2022-09-25T11:27:22;16.60;93.20
13211;DHT22;6670;51.53087800;7.23266500;2022-09-25T11:29:59;16.90;96.30
13211;DHT22;6670;51.53087800;7.23266500;2022-09-25T11:32:35;17.70;96.10
13211;DHT22;6670;51.53087800;7.23266500;2022-09-25T11:35:32;18.00;92.40
13211;DHT22;6670;51.53087800;7.23266500;2022-09-25T11:38:11;18.30;91.00
13211;DHT22;6670;51.53087800;7.23266500;2022-09-25T11:40:51;18.50;89.60
13211;DHT22;6670;51.53087800;7.23266500;2022-09-25T11:43:56;18.50;86.30
13211;DHT22;6670;51.53087800;7.23266500;2022-09-25T11:46:32;18.50;85.20
13211;DHT22;6670;51.53087800;7.23266500;2022-09-25T11:49:11;18.50;82.00
13211;DHT22;6670;51.53087800;7.23266500;2022-09-25T11:52:04;18.30;83.20
13211;DHT22;6670;51.53087800;7.23266500;2022-09-25T11:54:45;18.50;83.00
13211;DHT22;6670;51.53087800;7.23266500;2022-09-25T11:57:18;19.10;80.90
13211;DHT22;6670;51.53087800;7.23266500;2022-09-25T12:00:01;19.20;78.40
13211;DHT22;6670;51.53087800;7.23266500;2022-09-25T12:02:51;19.30;76.90
13211;DHT22;6670;51.53087800;7.23266500;2022-09-25T12:05:37;18.90;72.60
13211;DHT22;6670;51.53087800;7.23266500;2022-09-25T12:08:17;18.50;70.30
13211;DHT22;6670;51.53087800;7.23266500;2022-09-25T12:10:55;18.40;73.50
13211;DHT22;6670;51.53087800;7.23266500;2022-09-25T12:13:32;19.00;73.80
13211;DHT22;6670;51.53087800;7.23266500;2022-09-25T12:16:12;19.80;71.30
13211;DHT22;6670;51.53087800;7.23266500;2022-09-25T12:19:00;19.70;73.50
13211;DHT22;6670;51.53087800;7.23266500;2022-09-25T12:21:36;19.90;73.60
13211;DHT22;6670;51.53087800;7.23266500;2022-09-25T12:24:14;20.10;72.00
13211;DHT22;6670;51.53087800;7.23266500;2022-09-25T12:26:48;19.70;74.00
13211;DHT22;6670;51.53087800;7.23266500;2022-09-25T12:29:31;19.00;74.20
13211;DHT22;6670;51.53087800;7.23266500;2022-09-25T12:32:08;18.90;74.70
13211;DHT22;6670;51.53087800;7.23266500;2022-09-25T12:34:55;19.00;75.40
13211;DHT22;6670;51.53087800;7.23266500;2022-09-25T12:37:41;20.10;72.50
13211;DHT22;6670;51.53087800;7.23266500;2022-09-25T12:40:21;20.20;61.70
13211;DHT22;6670;51.53087800;7.23266500;2022-09-25T12:42:56;20.20;59.80
13211;DHT22;6670;51.53087800;7.23266500;2022-09-25T12:45:28;21.00;56.20
13211;DHT22;6670;51.53087800;7.23266500;2022-09-25T12:48:07;20.20;58.70
13211;DHT22;6670;51.53087800;7.23266500;2022-09-25T12:50:43;21.40;59.20
13211;DHT22;6670;51.53087800;7.23266500;2022-09-25T12:53:21;22.20;55.20
13211;DHT22;6670;51.53087800;7.23266500;2022-09-25T12:55:56;22.10;54.00
13211;DHT22;6670;51.53087800;7.23266500;2022-09-25T12:58:41;21.30;55.40
13211;DHT22;6670;51.53087800;7.23266500;2022-09-25T13:01:17;21.00;57.10
13211;DHT22;6670;51.53087800;7.23266500;2022-09-25T13:03:53;20.60;59.80
13211;DHT22;6670;51.53087800;7.23266500;2022-09-25T13:06:30;21.00;61.10
13211;DHT22;6670;51.53087800;7.23266500;2022-09-25T13:09:05;22.50;55.50
13211;DHT22;6670;51.53087800;7.23266500;2022-09-25T13:11:39;22.90;55.00
13211;DHT22;6670;51.53087800;7.23266500;2022-09-25T13:14:29;21.40;54.00
13211;DHT22;6670;51.53087800;7.23266500;2022-09-25T13:16:58;21.30;57.30
13211;DHT22;6670;51.53087800;7.23266500;2022-09-25T13:19:29;22.70;54.10
13211;DHT22;6670;51.53087800;7.23266500;2022-09-25T13:22:04;23.10;52.00
13211;DHT22;6670;51.53087800;7.23266500;2022-09-25T13:24:38;23.10;50.90
13211;DHT22;6670;51.53087800;7.23266500;2022-09-25T13:27:12;23.00;47.00
13211;DHT22;6670;51.53087800;7.23266500;2022-09-25T13:29:41;23.10;49.90
13211;DHT22;6670;51.53087800;7.23266500;2022-09-25T13:32:14;23.10;47.80
13211;DHT22;6670;51.53087800;7.23266500;2022-09-25T13:34:44;23.60;47.50
13211;DHT22;6670;51.53087800;7.23266500;2022-09-25T13:37:14;23.40;48.30
13211;DHT22;6670;51.53087800;7.23266500;2022-09-25T13:39:45;24.00;47.20
13211;DHT22;6670;51.53087800;7.23266500;2022-09-25T13:42:34;22.20;49.00
13211;DHT22;6670;51.53087800;7.23266500;2022-09-25T13:45:25;22.30;49.90
13211;DHT22;6670;51.53087800;7.23266500;2022-09-25T13:47:59;23.50;51.40
13211;DHT22;6670;51.53087800;7.23266500;2022-09-25T13:50:37;24.30;48.30
13211;DHT22;6670;51.53087800;7.23266500;2022-09-25T13:53:21;23.90;45.60
13211;DHT22;6670;51.53087800;7.23266500;2022-09-25T13:59:35;24.70;48.20
13211;DHT22;6670;51.53087800;7.23266500;2022-09-25T14:05:13;23.70;46.00
13211;DHT22;6670;51.53087800;7.23266500;2022-09-25T14:07:47;23.10;45.00
13211;DHT22;6670;51.53087800;7.23266500;2022-09-25T14:10:21;23.60;44.90
13211;DHT22;6670;51.53087800;7.23266500;2022-09-25T14:12:50;24.50;44.50
13211;DHT22;6670;51.53087800;7.23266500;2022-09-25T14:15:25;23.40;42.20
13211;DHT22;6670;51.53087800;7.23266500;2022-09-25T14:17:56;23.60;44.10
13211;DHT22;6670;51.53087800;7.23266500;2022-09-25T14:20:30;22.40;44.10
13211;DHT22;6670;51.53087800;7.23266500;2022-09-25T14:23:04;22.10;44.40
13211;DHT22;6670;51.53087800;7.23266500;2022-09-25T14:25:33;21.50;45.10